Time;durP1;ratioP1;P1;durP2;ratioP2;P2;SDS_P1;SDS_P2;PMS_P1;PMS_P2;Temp;Humidity;BMP_temperature;BMP_pressure;BME280_temperature;BME280_humidity;BME280_pressure;Samples;Min_cycle;Max_cycle;Signal;HPM_P1;HPM_P2
2022/09/21 00:01:30;;;;;;;1.97;1.50;;;10.20;97.30;;;;;;5046659;28;20431;-94
2022/09/21 00:04:03;;;;;;;1.33;1.23;;;10.20;97.30;;;;;;5053823;28;20184;-93
2022/09/21 00:06:32;;;;;;;2.97;1.80;;;10.10;97.30;;;;;;5047461;28;20462;-94
2022/09/21 00:08:58;;;;;;;1.20;1.10;;;10.10;97.30;;;;;;5043776;28;20485;-94
2022/09/21 00:11:29;;;;;;;1.10;1.00;;;10.00;97.30;;;;;;5050589;28;20430;-94
2022/09/21 00:13:58;;;;;;;1.00;0.90;;;10.00;97.30;;;;;;5053270;28;20426;-94
2022/09/21 00:16:24;;;;;;;1.10;1.00;;;9.90;97.30;;;;;;5049509;28;20547;-94
2022/09/21 00:18:50;;;;;;;3.40;1.60;;;9.90;97.30;;;;;;5045401;28;20426;-93
2022/09/21 00:21:18;;;;;;;1.63;1.53;;;9.80;97.30;;;;;;5056047;28;20191;-94
2022/09/21 00:23:44;;;;;;;1.20;1.10;;;9.70;97.30;;;;;;5056657;28;20180;-94
2022/09/21 00:26:13;;;;;;;1.20;1.13;;;9.70;97.30;;;;;;5057041;28;20462;-94
2022/09/21 00:28:39;;;;;;;1.13;1.07;;;9.70;97.30;;;;;;5063419;28;20423;-93
2022/09/21 00:31:07;;;;;;;1.90;1.80;;;9.60;97.30;;;;;;5059451;28;20422;-94
2022/09/21 00:33:33;;;;;;;1.10;1.00;;;9.60;97.30;;;;;;5060060;28;20421;-93
2022/09/21 00:36:04;;;;;;;1.97;1.90;;;9.60;97.30;;;;;;5036584;28;20443;-94
2022/09/21 00:38:29;;;;;;;1.20;1.00;;;9.50;97.30;;;;;;5049561;28;20426;-94
2022/09/21 00:40:55;;;;;;;1.40;1.30;;;9.50;97.30;;;;;;5044388;28;20433;-95
2022/09/21 00:43:23;;;;;;;1.20;1.10;;;9.50;97.30;;;;;;5058168;28;20215;-94
2022/09/21 00:45:53;;;;;;;1.30;1.30;;;9.40;97.30;;;;;;5047124;28;20290;-96
2022/09/21 00:48:19;;;;;;;5.13;1.77;;;9.40;97.30;;;;;;5058497;28;20418;-95
2022/09/21 00:50:54;;;;;;;1.63;1.50;;;9.40;97.30;;;;;;5068085;28;20426;-94
2022/09/21 00:53:23;;;;;;;2.07;1.53;;;9.30;97.30;;;;;;5056175;28;20187;-96
2022/09/21 00:55:55;;;;;;;1.13;0.93;;;9.30;97.30;;;;;;5052008;28;20427;-96
2022/09/21 00:58:30;;;;;;;1.77;1.67;;;9.30;97.30;;;;;;5059095;28;20446;-96
2022/09/21 01:00:58;;;;;;;2.80;2.07;;;9.20;97.30;;;;;;5050134;28;20439;-96
2022/09/21 01:03:24;;;;;;;2.07;1.57;;;9.20;97.30;;;;;;5041020;28;20439;-95
2022/09/21 01:05:49;;;;;;;1.13;1.10;;;9.20;97.30;;;;;;5049425;28;20482;-94
2022/09/21 01:08:16;;;;;;;1.43;1.37;;;9.20;97.30;;;;;;5056234;28;20849;-96
2022/09/21 01:11:14;;;;;;;2.13;1.97;;;9.20;97.30;;;;;;5063372;28;20171;-94
2022/09/21 01:14:13;;;;;;;1.17;1.07;;;9.20;97.30;;;;;;5061683;28;20464;-94
2022/09/21 01:16:42;;;;;;;2.10;1.67;;;9.20;97.30;;;;;;5057324;28;20486;-93
2022/09/21 01:19:38;;;;;;;2.17;2.00;;;9.20;97.30;;;;;;5049407;28;20426;-94
2022/09/21 01:22:23;;;;;;;1.70;1.60;;;9.10;97.30;;;;;;5055624;28;20427;-96
2022/09/21 01:25:16;;;;;;;1.20;1.10;;;9.10;97.30;;;;;;5061340;28;20533;-95
2022/09/21 01:28:15;;;;;;;2.10;1.60;;;9.10;97.30;;;;;;5049249;28;20473;-95
2022/09/21 01:30:43;;;;;;;1.40;1.30;;;9.10;97.30;;;;;;5049974;28;20422;-93
2022/09/21 01:33:16;;;;;;;1.20;1.10;;;9.10;97.30;;;;;;5052296;28;20450;-95
2022/09/21 01:35:53;;;;;;;1.63;1.53;;;9.10;97.30;;;;;;5052735;28;20418;-94
2022/09/21 01:38:44;;;;;;;1.70;1.60;;;9.10;97.30;;;;;;5059903;28;20429;-95
2022/09/21 01:41:13;;;;;;;1.40;1.30;;;9.10;97.30;;;;;;5043768;28;20422;-94
2022/09/21 01:43:47;;;;;;;4.90;1.67;;;9.10;97.30;;;;;;5048285;28;20434;-93
2022/09/21 01:46:18;;;;;;;15.33;2.27;;;9.00;97.30;;;;;;5053975;28;20465;-96
2022/09/21 01:48:48;;;;;;;1.40;1.30;;;9.00;97.30;;;;;;5056542;28;20413;-96
2022/09/21 01:51:16;;;;;;;3.33;1.37;;;9.00;97.30;;;;;;5057404;28;20398;-94
2022/09/21 01:53:51;;;;;;;1.67;1.63;;;8.90;97.30;;;;;;5055274;28;20415;-94
2022/09/21 01:56:29;;;;;;;1.43;1.33;;;8.90;97.30;;;;;;5057235;28;20495;-96
2022/09/21 01:59:12;;;;;;;1.57;1.47;;;8.90;97.30;;;;;;5058380;28;20453;-95
2022/09/21 02:01:47;;;;;;;1.43;1.40;;;8.90;97.30;;;;;;5059776;28;20448;-96
2022/09/21 02:04:18;;;;;;;2.90;1.90;;;8.80;97.30;;;;;;5054541;28;20414;-94
2022/09/21 02:06:48;;;;;;;1.40;1.30;;;8.80;97.30;;;;;;5056451;28;20462;-95
2022/09/21 02:09:18;;;;;;;1.50;1.40;;;8.80;97.30;;;;;;5056476;28;20508;-96
2022/09/21 02:11:44;;;;;;;1.30;1.20;;;8.70;97.30;;;;;;5040065;28;20439;-95
2022/09/21 02:14:13;;;;;;;4.20;1.73;;;8.70;97.30;;;;;;5064040;28;20523;-96
2022/09/21 02:16:55;;;;;;;2.13;1.80;;;8.70;97.30;;;;;;5052010;28;20419;-94
2022/09/21 02:19:45;;;;;;;1.73;1.10;;;8.60;97.30;;;;;;5052217;28;20511;-95
2022/09/21 02:22:32;;;;;;;2.97;1.47;;;8.60;97.30;;;;;;5064446;28;20434;-94
2022/09/21 02:25:13;;;;;;;1.43;1.33;;;8.60;97.30;;;;;;5053000;28;20433;-93
2022/09/21 02:28:05;;;;;;;2.10;2.00;;;8.50;97.30;;;;;;5052260;28;20541;-95
2022/09/21 02:30:34;;;;;;;4.40;1.70;;;8.50;97.30;;;;;;5051654;28;20416;-93
2022/09/21 02:33:03;;;;;;;2.60;1.80;;;8.50;97.30;;;;;;5042041;28;20455;-95
2022/09/21 02:35:57;;;;;;;1.73;1.63;;;8.50;97.30;;;;;;5034032;28;20414;-94
2022/09/21 02:38:34;;;;;;;1.10;1.03;;;8.40;97.30;;;;;;5049074;28;20438;-94
2022/09/21 02:41:00;;;;;;;1.47;1.37;;;8.40;97.30;;;;;;5059602;28;20427;-95
2022/09/21 02:43:31;;;;;;;1.60;1.50;;;8.40;97.30;;;;;;5037263;28;21112;-94
2022/09/21 02:46:04;;;;;;;1.57;1.53;;;8.30;97.30;;;;;;5049457;28;20214;-94
2022/09/21 02:48:40;;;;;;;1.23;1.20;;;8.30;97.30;;;;;;5047308;28;20426;-95
2022/09/21 02:51:15;;;;;;;3.80;1.73;;;8.30;97.30;;;;;;5049223;28;20414;-94
2022/09/21 02:53:44;;;;;;;4.13;1.93;;;8.30;97.30;;;;;;5041112;28;20422;-94
2022/09/21 02:56:12;;;;;;;1.40;1.30;;;8.20;97.30;;;;;;5046647;28;20429;-94
2022/09/21 02:58:46;;;;;;;1.50;1.37;;;8.20;97.30;;;;;;5052389;28;20482;-93
2022/09/21 03:01:15;;;;;;;1.07;1.03;;;8.20;97.30;;;;;;5052985;28;20417;-93
2022/09/21 03:03:43;;;;;;;1.40;1.30;;;8.20;97.30;;;;;;5032051;28;20442;-94
2022/09/21 03:06:09;;;;;;;1.60;1.50;;;8.20;97.30;;;;;;5056679;28;20496;-94
2022/09/21 03:08:35;;;;;;;3.00;1.60;;;8.10;97.30;;;;;;5038429;28;20450;-93
2022/09/21 03:11:01;;;;;;;1.90;1.50;;;8.10;97.30;;;;;;5059223;28;20179;-92
2022/09/21 03:13:26;;;;;;;1.10;1.10;;;8.10;97.30;;;;;;5053676;28;20271;-92
2022/09/21 03:16:02;;;;;;;1.40;1.30;;;8.10;97.30;;;;;;5045043;28;20423;-94
2022/09/21 03:18:28;;;;;;;4.13;1.70;;;8.10;97.30;;;;;;5043600;28;20229;-93
2022/09/21 03:20:54;;;;;;;1.50;1.43;;;8.10;97.30;;;;;;5037150;28;20426;-93
2022/09/21 03:23:20;;;;;;;1.50;1.40;;;8.10;97.30;;;;;;5049252;28;20210;-93
2022/09/21 03:25:46;;;;;;;1.70;1.63;;;8.10;97.30;;;;;;5048735;28;20183;-94
2022/09/21 03:28:13;;;;;;;6.50;2.13;;;8.10;97.30;;;;;;5047844;28;20406;-90
2022/09/21 03:30:39;;;;;;;1.63;1.30;;;8.00;97.30;;;;;;5040989;28;20456;-91
2022/09/21 03:33:05;;;;;;;2.50;2.40;;;8.00;97.30;;;;;;5045141;28;20442;-91
2022/09/21 03:35:34;;;;;;;5.93;3.00;;;8.00;97.30;;;;;;5044461;28;20403;-91
2022/09/21 03:38:00;;;;;;;2.37;1.23;;;8.00;97.30;;;;;;5044809;28;20241;-91
2022/09/21 03:40:27;;;;;;;3.33;2.07;;;8.00;97.30;;;;;;5043767;28;20426;-90
2022/09/21 03:42:53;;;;;;;1.67;1.57;;;8.00;97.30;;;;;;5041590;28;20450;-93
2022/09/21 03:45:20;;;;;;;1.87;1.77;;;7.90;97.30;;;;;;5052831;28;20491;-92
2022/09/21 03:47:47;;;;;;;2.13;1.30;;;7.90;97.30;;;;;;5072938;28;20477;-91
2022/09/21 03:50:12;;;;;;;3.33;1.93;;;7.90;97.30;;;;;;5042659;28;20949;-89
2022/09/21 03:52:38;;;;;;;2.00;1.70;;;7.90;97.30;;;;;;5047330;28;20452;-89
2022/09/21 03:55:05;;;;;;;3.23;1.57;;;7.90;97.30;;;;;;5035712;28;20418;-88
2022/09/21 03:57:33;;;;;;;1.63;1.53;;;7.90;97.30;;;;;;5033373;28;20675;-92
2022/09/21 03:59:58;;;;;;;2.87;2.67;;;7.90;97.30;;;;;;5032449;28;20427;-91
2022/09/21 04:02:24;;;;;;;1.73;1.57;;;7.80;97.30;;;;;;5039939;28;20441;-90
2022/09/21 04:04:49;;;;;;;1.27;1.17;;;7.80;97.30;;;;;;5038786;28;20212;-91
2022/09/21 04:07:15;;;;;;;5.57;2.60;;;7.80;97.30;;;;;;5033170;28;20627;-91
2022/09/21 04:09:43;;;;;;;2.83;2.10;;;7.80;97.30;;;;;;5037054;28;20311;-92
2022/09/21 04:12:09;;;;;;;1.60;1.50;;;7.80;97.30;;;;;;5032795;28;20562;-93
2022/09/21 04:14:35;;;;;;;2.90;2.27;;;7.70;97.30;;;;;;5035532;28;20788;-91
2022/09/21 04:17:01;;;;;;;2.03;1.70;;;7.70;97.30;;;;;;5038129;28;20313;-93
2022/09/21 04:19:26;;;;;;;1.30;1.20;;;7.70;97.30;;;;;;5038354;28;20477;-92
2022/09/21 04:21:53;;;;;;;1.50;1.50;;;7.70;97.30;;;;;;5035345;28;20208;-92
2022/09/21 04:24:19;;;;;;;2.63;1.73;;;7.70;97.30;;;;;;5041438;28;20187;-92
2022/09/21 04:26:45;;;;;;;2.87;2.20;;;7.60;97.30;;;;;;5039175;28;20824;-92
2022/09/21 04:29:14;;;;;;;1.40;1.30;;;7.60;97.30;;;;;;5035727;28;20180;-91
2022/09/21 04:31:40;;;;;;;2.30;1.43;;;7.60;97.30;;;;;;5045561;28;20445;-90
2022/09/21 04:34:06;;;;;;;1.53;1.43;;;7.50;97.30;;;;;;5037343;28;20423;-90
2022/09/21 04:36:31;;;;;;;1.90;1.80;;;7.50;97.30;;;;;;5051391;28;20894;-90
2022/09/21 04:38:59;;;;;;;2.03;1.90;;;7.50;97.30;;;;;;5041537;28;20697;-89
2022/09/21 04:41:26;;;;;;;5.23;1.30;;;7.50;97.30;;;;;;5030175;28;20271;-90
2022/09/21 04:43:51;;;;;;;3.10;2.90;;;7.50;97.30;;;;;;5033208;28;20419;-90
2022/09/21 04:46:18;;;;;;;1.70;1.63;;;7.50;97.30;;;;;;5028412;28;20515;-91
2022/09/21 04:48:45;;;;;;;2.40;1.50;;;7.50;97.30;;;;;;5036941;28;20187;-91
2022/09/21 04:51:11;;;;;;;1.70;1.57;;;7.50;97.30;;;;;;5026818;28;20803;-91
2022/09/21 04:53:39;;;;;;;3.03;1.73;;;7.50;97.30;;;;;;5037897;28;21054;-91
2022/09/21 04:56:06;;;;;;;1.63;1.53;;;7.50;97.30;;;;;;5037167;28;20964;-89
2022/09/21 04:58:32;;;;;;;2.03;1.70;;;7.50;97.30;;;;;;5044371;28;20430;-91
2022/09/21 05:00:58;;;;;;;2.83;1.67;;;7.50;97.30;;;;;;5037852;28;20513;-91
2022/09/21 05:03:24;;;;;;;2.20;1.50;;;7.50;97.30;;;;;;5051128;28;20465;-91
2022/09/21 05:05:53;;;;;;;1.30;1.20;;;7.50;97.30;;;;;;5038523;28;20219;-91
2022/09/21 05:10:01;;;;;;;1.50;1.40;;;7.50;97.30;;;;;;5028827;28;20541;-90
2022/09/21 05:11:11;;;;;;;10.90;2.93;;;7.40;97.30;;;;;;5049254;28;21048;-90
2022/09/21 05:13:37;;;;;;;2.67;2.47;;;7.50;97.30;;;;;;5033106;28;20450;-91
2022/09/21 05:16:03;;;;;;;6.20;3.00;;;7.40;97.30;;;;;;5034131;28;20429;-90
2022/09/21 05:18:28;;;;;;;2.30;2.10;;;7.50;97.30;;;;;;5029992;28;20203;-91
2022/09/21 05:20:55;;;;;;;4.77;2.97;;;7.50;97.30;;;;;;5051592;28;20687;-90
2022/09/21 05:23:21;;;;;;;2.80;2.60;;;7.40;97.30;;;;;;5032562;28;20196;-91
2022/09/21 05:25:46;;;;;;;4.50;1.80;;;7.50;97.30;;;;;;5037579;28;20423;-89
2022/09/21 05:28:12;;;;;;;1.83;1.73;;;7.50;97.30;;;;;;5050483;28;20427;-91
2022/09/21 05:30:38;;;;;;;2.03;1.80;;;7.50;97.30;;;;;;5029237;28;20202;-89
2022/09/21 05:33:05;;;;;;;3.80;1.70;;;7.50;97.30;;;;;;5027711;28;20224;-91
2022/09/21 05:35:41;;;;;;;3.57;2.60;;;7.50;97.30;;;;;;5032511;28;20669;-90
2022/09/21 05:38:10;;;;;;;1.80;1.70;;;7.50;97.30;;;;;;5027577;28;20509;-89
2022/09/21 05:40:38;;;;;;;1.93;1.63;;;7.50;97.30;;;;;;5031349;28;20458;-91
2022/09/21 05:43:04;;;;;;;1.80;1.80;;;7.50;97.30;;;;;;5030171;28;20443;-90
2022/09/21 05:45:30;;;;;;;3.53;2.33;;;7.50;97.30;;;;;;5037697;28;20430;-90
2022/09/21 05:48:31;;;;;;;5.23;2.33;;;7.50;97.30;;;;;;5043216;28;20192;-89
2022/09/21 05:51:11;;;;;;;1.70;1.60;;;7.50;97.30;;;;;;5019665;28;20183;-91
2022/09/21 05:54:15;;;;;;;3.47;2.23;;;7.50;97.30;;;;;;5036784;28;20426;-91
2022/09/21 05:57:02;;;;;;;5.07;1.53;;;7.60;97.30;;;;;;5043166;28;20429;-91
2022/09/21 05:59:56;;;;;;;2.30;1.90;;;7.60;97.30;;;;;;5036316;28;20411;-91
2022/09/21 06:02:46;;;;;;;2.03;1.80;;;7.60;97.30;;;;;;5031183;28;20445;-90
2022/09/21 06:05:14;;;;;;;1.57;1.47;;;7.60;97.30;;;;;;5037741;28;20431;-89
2022/09/21 06:07:40;;;;;;;1.50;1.27;;;7.70;97.30;;;;;;5030321;28;20543;-90
2022/09/21 06:10:07;;;;;;;2.80;2.60;;;7.70;97.30;;;;;;5044612;28;20447;-89
2022/09/21 06:12:33;;;;;;;2.57;2.07;;;7.70;97.30;;;;;;5035749;28;20521;-90
2022/09/21 06:14:58;;;;;;;1.90;1.80;;;7.80;97.30;;;;;;5027619;28;20916;-91
2022/09/21 06:17:26;;;;;;;1.50;1.50;;;7.80;97.30;;;;;;5026671;28;20184;-89
2022/09/21 06:19:54;;;;;;;2.10;1.80;;;7.90;97.30;;;;;;5019275;28;20549;-92
2022/09/21 06:22:40;;;;;;;2.17;2.00;;;7.90;97.30;;;;;;5024538;28;20445;-90
2022/09/21 06:25:06;;;;;;;2.43;1.77;;;8.00;97.30;;;;;;5038728;28;20438;-90
2022/09/21 06:27:31;;;;;;;2.23;2.03;;;8.00;97.30;;;;;;5037141;28;20549;-90
2022/09/21 06:29:57;;;;;;;1.83;1.47;;;8.00;97.30;;;;;;5025725;28;20952;-90
2022/09/21 06:32:22;;;;;;;3.97;2.87;;;8.10;97.30;;;;;;5038065;28;20697;-88
2022/09/21 06:35:14;;;;;;;4.80;2.97;;;8.10;97.30;;;;;;5031341;28;20176;-88
2022/09/21 06:37:49;;;;;;;2.30;2.10;;;8.20;97.30;;;;;;5020399;28;20189;-90
2022/09/21 06:40:15;;;;;;;2.70;1.97;;;8.20;97.30;;;;;;5025371;28;20444;-88
2022/09/21 06:42:40;;;;;;;3.03;1.70;;;8.30;97.30;;;;;;5036635;28;20429;-88
2022/09/21 06:45:06;;;;;;;3.47;2.10;;;8.30;97.30;;;;;;5035963;28;20271;-90
2022/09/21 06:48:11;;;;;;;2.60;2.17;;;8.40;97.30;;;;;;5037537;28;20229;-90
2022/09/21 06:50:37;;;;;;;1.87;1.77;;;8.40;97.30;;;;;;5038893;28;20410;-90
2022/09/21 06:53:03;;;;;;;2.57;2.00;;;8.50;97.30;;;;;;5042304;28;20438;-91
2022/09/21 06:55:30;;;;;;;8.23;3.57;;;8.60;97.30;;;;;;5056382;28;20244;-91
2022/09/21 06:58:00;;;;;;;2.27;1.70;;;8.60;97.30;;;;;;5056617;28;20199;-89
2022/09/21 07:00:26;;;;;;;3.10;2.90;;;8.70;97.30;;;;;;5042334;28;21292;-90
2022/09/21 07:02:51;;;;;;;3.20;2.83;;;8.80;97.30;;;;;;5057096;28;20481;-94
2022/09/21 07:05:17;;;;;;;4.27;4.00;;;8.80;97.30;;;;;;5039165;28;20251;-89
2022/09/21 07:07:42;;;;;;;7.13;3.17;;;8.90;97.30;;;;;;5036215;28;20231;-90
2022/09/21 07:10:08;;;;;;;4.00;2.70;;;9.00;97.30;;;;;;5023376;28;20188;-92
2022/09/21 07:12:34;;;;;;;3.20;2.13;;;9.10;97.30;;;;;;5034976;28;20204;-91
2022/09/21 07:15:04;;;;;;;7.50;3.87;;;9.20;97.30;;;;;;5043842;28;20184;-91
2022/09/21 07:17:34;;;;;;;3.13;2.13;;;9.30;97.30;;;;;;5032314;28;20435;-92
2022/09/21 07:20:01;;;;;;;3.37;1.80;;;9.40;97.30;;;;;;5034346;28;20920;-92
2022/09/21 07:22:31;;;;;;;2.73;2.00;;;9.50;97.30;;;;;;5039265;28;21160;-90
2022/09/21 07:24:57;;;;;;;2.80;2.60;;;9.50;97.30;;;;;;5029488;28;20407;-93
2022/09/21 07:27:24;;;;;;;5.37;3.30;;;9.60;97.30;;;;;;5039221;28;20564;-88
2022/09/21 07:29:50;;;;;;;9.20;2.67;;;9.70;97.30;;;;;;5041010;28;20180;-90
2022/09/21 07:32:15;;;;;;;2.50;1.87;;;9.70;97.30;;;;;;5041948;28;20945;-91
2022/09/21 07:34:41;;;;;;;2.53;2.33;;;9.80;97.30;;;;;;5035103;28;20191;-94
2022/09/21 07:37:06;;;;;;;2.00;1.90;;;9.90;97.30;;;;;;5037229;28;20281;-95
2022/09/21 07:39:32;;;;;;;4.87;3.63;;;9.90;97.30;;;;;;5049101;28;20171;-95
2022/09/21 07:41:57;;;;;;;2.80;2.70;;;10.00;97.30;;;;;;5049600;28;20180;-94
2022/09/21 07:44:24;;;;;;;1.53;1.50;;;10.20;97.30;;;;;;5045274;28;20231;-93
2022/09/21 07:46:49;;;;;;;3.13;2.43;;;10.20;97.30;;;;;;5050523;28;20217;-92
2022/09/21 07:49:15;;;;;;;2.73;2.10;;;10.30;97.30;;;;;;5042644;28;20431;-94
2022/09/21 07:51:40;;;;;;;3.80;2.07;;;10.30;97.30;;;;;;5049860;28;20207;-95
2022/09/21 07:54:09;;;;;;;3.03;2.00;;;10.40;97.30;;;;;;5055225;28;20191;-94
2022/09/21 07:56:36;;;;;;;5.00;3.33;;;10.40;97.30;;;;;;5043422;28;20180;-94
2022/09/21 07:59:04;;;;;;;6.00;2.83;;;10.50;97.30;;;;;;5045069;28;20426;-94
2022/09/21 08:01:38;;;;;;;3.10;1.80;;;10.60;97.30;;;;;;5051142;28;20446;-94
2022/09/21 08:04:06;;;;;;;3.23;2.13;;;10.70;97.30;;;;;;5050205;28;20936;-94
2022/09/21 08:06:34;;;;;;;1.93;1.67;;;10.80;97.30;;;;;;5051116;28;20468;-94
2022/09/21 08:09:00;;;;;;;2.77;2.30;;;10.80;97.30;;;;;;5075093;28;20477;-94
2022/09/21 08:11:30;;;;;;;3.17;2.90;;;10.90;97.30;;;;;;5057434;28;20418;-95
2022/09/21 08:14:10;;;;;;;2.73;2.60;;;11.00;97.30;;;;;;5050261;28;20423;-96
2022/09/21 08:16:38;;;;;;;4.20;2.00;;;11.00;97.30;;;;;;5048751;28;20419;-93
2022/09/21 08:19:06;;;;;;;3.83;3.00;;;11.10;97.30;;;;;;5073495;28;20423;-94
2022/09/21 08:21:40;;;;;;;1.53;1.53;;;11.20;97.30;;;;;;5068483;28;20431;-96
2022/09/21 08:24:08;;;;;;;1.23;1.20;;;11.30;97.30;;;;;;5052398;28;20517;-95
2022/09/21 08:26:36;;;;;;;3.70;2.87;;;11.30;97.30;;;;;;5051900;28;20443;-94
2022/09/21 08:29:09;;;;;;;1.83;1.73;;;11.40;97.30;;;;;;5055363;28;20418;-94
2022/09/21 08:31:37;;;;;;;6.00;2.87;;;11.40;97.30;;;;;;5061706;28;20452;-94
2022/09/21 08:34:18;;;;;;;4.10;2.10;;;11.50;97.30;;;;;;5057205;28;20466;-96
2022/09/21 08:37:06;;;;;;;5.63;2.20;;;11.60;97.30;;;;;;5049785;28;20425;-94
2022/09/21 08:52:39;;;;;;;1.77;1.67;;;12.00;97.30;;;;;;5048792;28;20764;-95
2022/09/21 08:55:18;;;;;;;3.23;2.73;;;12.10;97.30;;;;;;5046113;28;20390;-95
2022/09/21 08:57:47;;;;;;;5.23;2.27;;;12.20;97.30;;;;;;5051801;28;20402;-94
2022/09/21 09:00:20;;;;;;;2.50;1.87;;;12.30;97.30;;;;;;5037271;28;20423;-95
2022/09/21 09:03:06;;;;;;;11.40;2.70;;;12.40;97.30;;;;;;5043871;28;20430;-95
2022/09/21 09:09:18;;;;;;;2.40;1.47;;;12.50;97.30;;;;;;5057776;28;20446;-96
2022/09/21 09:12:16;;;;;;;4.40;1.70;;;12.60;97.30;;;;;;5041119;28;20453;-94
2022/09/21 09:15:06;;;;;;;1.90;1.70;;;12.70;97.30;;;;;;5037383;28;20423;-95
2022/09/21 09:17:47;;;;;;;6.90;2.40;;;12.70;97.30;;;;;;5027986;28;20410;-96
2022/09/21 09:20:26;;;;;;;2.33;1.90;;;12.90;97.30;;;;;;5041496;28;20402;-95
2022/09/21 09:26:17;;;;;;;1.60;1.50;;;13.00;97.30;;;;;;5055271;28;20407;-94
2022/09/21 09:29:00;;;;;;;6.97;2.87;;;13.10;97.30;;;;;;5048965;28;20418;-95
2022/09/21 09:32:00;;;;;;;3.73;1.90;;;13.10;97.30;;;;;;5032346;28;20456;-94
2022/09/21 09:35:03;;;;;;;5.50;2.80;;;13.20;97.30;;;;;;5031376;28;20508;-93
2022/09/21 09:37:37;;;;;;;7.53;1.97;;;13.20;97.30;;;;;;5034080;28;20453;-94
2022/09/21 09:40:07;;;;;;;3.97;1.43;;;13.30;97.30;;;;;;5046535;28;20497;-92
2022/09/21 09:42:55;;;;;;;10.70;2.43;;;13.40;97.30;;;;;;5028891;28;20465;-93
2022/09/21 09:45:48;;;;;;;2.57;1.67;;;13.40;97.30;;;;;;5033427;28;21155;-93
2022/09/21 09:48:28;;;;;;;1.60;1.07;;;13.40;97.30;;;;;;5042460;28;21015;-92
2022/09/21 09:51:00;;;;;;;2.70;2.10;;;13.50;97.30;;;;;;5029585;28;20423;-91
2022/09/21 09:53:30;;;;;;;2.53;2.33;;;13.60;97.30;;;;;;5032120;28;20519;-94
2022/09/21 09:55:59;;;;;;;1.53;1.20;;;13.70;97.30;;;;;;5041298;28;20790;-92
2022/09/21 09:59:09;;;;;;;1.07;0.97;;;13.80;97.30;;;;;;5041001;28;20422;-92
2022/09/21 10:02:10;;;;;;;3.37;1.40;;;13.80;97.30;;;;;;4976789;28;20941;-94
2022/09/21 10:05:20;;;;;;;1.77;1.73;;;13.90;97.30;;;;;;5032185;28;20418;-93
2022/09/21 10:07:49;;;;;;;2.40;1.40;;;14.00;97.30;;;;;;4952027;29;20525;-94
2022/09/21 10:10:20;;;;;;;1.93;1.00;;;14.10;97.30;;;;;;4939773;29;20427;-92
2022/09/21 10:12:51;;;;;;;4.80;1.60;;;14.10;97.30;;;;;;4942739;29;20482;-93
2022/09/21 10:18:41;;;;;;;11.57;1.27;;;14.20;97.30;;;;;;5015663;28;20447;-92
2022/09/21 10:21:47;;;;;;;1.10;1.00;;;14.30;97.30;;;;;;5034207;28;20426;-91
2022/09/21 10:24:35;;;;;;;1.40;1.20;;;14.50;97.30;;;;;;4989609;28;20422;-93
2022/09/21 10:27:27;;;;;;;1.17;1.07;;;14.60;97.30;;;;;;5033259;28;20459;-94
2022/09/21 10:30:30;;;;;;;1.93;1.37;;;14.60;97.30;;;;;;5017343;28;20427;-96
2022/09/21 10:33:00;;;;;;;1.30;1.10;;;14.60;97.30;;;;;;5017722;28;20435;-93
2022/09/21 10:35:28;;;;;;;1.97;1.67;;;14.60;97.30;;;;;;5004718;28;20420;-94
2022/09/21 10:38:16;;;;;;;1.63;1.63;;;14.70;97.30;;;;;;5013577;28;20425;-93
2022/09/21 10:40:43;;;;;;;1.77;1.67;;;14.80;97.30;;;;;;5013345;28;20408;-93
2022/09/21 10:43:32;;;;;;;2.23;1.30;;;14.80;97.30;;;;;;5014403;28;21026;-93
2022/09/21 10:45:58;;;;;;;1.70;1.60;;;14.80;97.30;;;;;;5014851;28;20515;-93
2022/09/21 10:48:28;;;;;;;1.40;1.40;;;14.80;97.30;;;;;;5003414;28;20493;-93
2022/09/21 11:12:26;;;;;;;1.40;1.30;;;15.00;97.30;;;;;;5008578;26;20488;-90
2022/09/21 11:15:09;;;;;;;1.83;1.47;;;15.00;97.30;;;;;;4992046;28;20436;-90
2022/09/21 11:17:47;;;;;;;1.17;1.07;;;15.10;97.30;;;;;;4983780;28;20428;-89
2022/09/21 11:20:40;;;;;;;7.23;1.63;;;15.20;97.30;;;;;;5005262;28;20443;-90
2022/09/21 11:24:21;;;;;;;1.30;1.20;;;15.30;97.30;;;;;;4977052;28;20951;-90
2022/09/21 11:27:19;;;;;;;2.63;1.53;;;15.30;96.10;;;;;;4982217;28;20456;-90
2022/09/21 11:30:20;;;;;;;1.20;1.10;;;15.30;95.60;;;;;;4937312;29;20453;-90
2022/09/21 11:33:01;;;;;;;2.03;1.93;;;15.20;95.70;;;;;;4889186;29;20521;-89
2022/09/21 11:36:11;;;;;;;1.23;1.13;;;15.20;96.60;;;;;;4937243;29;20945;-90
2022/09/21 11:39:11;;;;;;;1.00;0.90;;;15.40;96.60;;;;;;4920316;28;20460;-90
2022/09/21 11:42:28;;;;;;;1.73;1.20;;;15.50;96.60;;;;;;4977240;28;20948;-90
2022/09/21 11:44:57;;;;;;;1.00;0.97;;;15.70;96.50;;;;;;4968564;28;20432;-90
2022/09/21 11:47:47;;;;;;;0.93;0.83;;;15.80;95.60;;;;;;4992438;28;20499;-89
2022/09/21 11:50:52;;;;;;;1.57;1.20;;;16.00;95.70;;;;;;4976356;28;21055;-91
2022/09/21 11:53:39;;;;;;;2.60;1.50;;;16.20;94.90;;;;;;4961803;28;20452;-90
2022/09/21 11:56:32;;;;;;;1.37;1.27;;;16.30;94.50;;;;;;4976993;28;20413;-91
2022/09/21 11:59:06;;;;;;;1.43;0.90;;;16.40;93.90;;;;;;4993935;28;20448;-90
2022/09/21 12:01:35;;;;;;;1.10;1.10;;;16.50;93.10;;;;;;4976450;28;20468;-89
2022/09/21 12:04:28;;;;;;;1.67;1.57;;;16.80;92.70;;;;;;5003483;28;20421;-90
2022/09/21 12:07:14;;;;;;;4.60;1.73;;;17.00;92.90;;;;;;4976535;28;20456;-90
2022/09/21 12:09:59;;;;;;;1.57;1.20;;;17.00;91.80;;;;;;4993742;28;20446;-90
2022/09/21 12:12:58;;;;;;;2.50;1.20;;;17.00;91.90;;;;;;4976180;28;20439;-90
2022/09/21 12:15:46;;;;;;;1.00;0.90;;;17.10;91.80;;;;;;4981024;28;20485;-90
2022/09/21 12:18:30;;;;;;;1.10;1.00;;;17.00;90.60;;;;;;4982401;28;21042;-90
2022/09/21 12:21:21;;;;;;;1.00;0.90;;;16.80;89.50;;;;;;4995412;28;20958;-89
2022/09/21 12:23:50;;;;;;;0.90;0.80;;;16.90;90.10;;;;;;4978959;28;20464;-89
2022/09/21 12:26:41;;;;;;;1.63;1.40;;;17.00;89.30;;;;;;4991182;28;20443;-90
2022/09/21 12:29:18;;;;;;;1.03;1.00;;;17.20;89.40;;;;;;4988858;28;20421;-90
2022/09/21 12:31:56;;;;;;;1.17;1.10;;;17.10;89.40;;;;;;4975136;28;20433;-90
2022/09/21 12:34:29;;;;;;;1.10;1.00;;;17.00;90.00;;;;;;4975511;28;20409;-90
2022/09/21 12:37:05;;;;;;;1.37;1.27;;;16.80;90.30;;;;;;4978223;28;20882;-91
2022/09/21 12:39:40;;;;;;;2.60;1.97;;;16.60;90.70;;;;;;4993023;28;20975;-91
2022/09/21 12:42:24;;;;;;;1.30;1.23;;;16.40;91.70;;;;;;4964322;28;20416;-90
2022/09/21 12:45:06;;;;;;;1.63;1.03;;;16.20;92.50;;;;;;4988095;28;20424;-90
2022/09/21 12:47:54;;;;;;;1.30;1.20;;;16.10;93.30;;;;;;4974182;28;20539;-90
2022/09/21 12:50:26;;;;;;;1.10;1.00;;;16.00;92.80;;;;;;4994190;28;20436;-90
2022/09/21 12:52:54;;;;;;;1.10;1.00;;;16.00;93.00;;;;;;5002110;28;20428;-90
2022/09/21 12:55:44;;;;;;;2.00;1.40;;;15.90;92.90;;;;;;4990424;28;20421;-89
2022/09/21 12:58:52;;;;;;;1.83;0.93;;;15.80;92.80;;;;;;4987621;28;20427;-90
2022/09/21 13:01:54;;;;;;;1.17;1.10;;;15.80;93.00;;;;;;4951001;28;20445;-90
2022/09/21 13:04:34;;;;;;;1.63;1.30;;;15.70;92.70;;;;;;4993114;28;20424;-90
2022/09/21 13:07:21;;;;;;;1.20;1.10;;;15.70;93.10;;;;;;4976846;28;20460;-90
2022/09/21 13:09:50;;;;;;;1.10;1.00;;;16.00;94.90;;;;;;4989073;28;20830;-90
2022/09/21 13:12:20;;;;;;;1.20;1.10;;;16.30;93.90;;;;;;4975055;28;20820;-91
2022/09/21 13:15:00;;;;;;;1.40;1.30;;;16.70;93.90;;;;;;4975186;28;20425;-90
2022/09/21 13:17:30;;;;;;;1.20;1.10;;;17.20;93.70;;;;;;4968979;28;20614;-90
2022/09/21 13:20:01;;;;;;;4.33;1.57;;;17.60;93.40;;;;;;4975093;28;20445;-90
2022/09/21 13:22:31;;;;;;;1.03;0.93;;;17.90;91.70;;;;;;4961902;28;20425;-91
2022/09/21 13:25:16;;;;;;;1.10;0.97;;;18.20;91.80;;;;;;4977168;28;20444;-90
2022/09/21 13:28:18;;;;;;;2.20;1.10;;;18.40;90.00;;;;;;4991899;28;20469;-90
2022/09/21 13:30:48;;;;;;;1.03;0.90;;;18.60;89.50;;;;;;4975061;28;20460;-90
2022/09/21 13:33:19;;;;;;;1.60;1.40;;;18.60;88.10;;;;;;4975349;28;20416;-90
2022/09/21 13:36:03;;;;;;;8.90;1.20;;;18.40;88.00;;;;;;4991699;28;20421;-90
2022/09/21 13:38:44;;;;;;;1.30;1.20;;;18.40;89.30;;;;;;4990275;28;20631;-90
2022/09/21 13:41:18;;;;;;;1.20;1.10;;;18.60;91.00;;;;;;5003503;28;20440;-91
2022/09/21 13:43:55;;;;;;;1.80;1.70;;;18.80;89.20;;;;;;4996645;28;20428;-90
2022/09/21 13:46:36;;;;;;;1.20;1.10;;;18.90;87.40;;;;;;4996213;28;20468;-89
2022/09/21 13:49:11;;;;;;;0.90;0.80;;;19.00;86.40;;;;;;4997548;28;20445;-90
2022/09/21 13:52:00;;;;;;;1.10;1.00;;;19.20;86.50;;;;;;5001256;28;20475;-89
2022/09/21 13:54:45;;;;;;;0.90;0.80;;;19.30;84.30;;;;;;4993745;28;20416;-90
2022/09/21 13:57:19;;;;;;;1.40;1.13;;;19.40;83.50;;;;;;4976833;28;20428;-90
2022/09/21 13:59:48;;;;;;;1.10;1.00;;;19.60;84.00;;;;;;4995667;28;20531;-90
2022/09/21 14:02:31;;;;;;;0.90;0.80;;;19.70;83.70;;;;;;4984651;28;20425;-90
2022/09/21 14:05:01;;;;;;;1.00;0.90;;;19.70;83.10;;;;;;4997805;28;20468;-89
2022/09/21 14:07:31;;;;;;;0.93;0.90;;;19.70;82.50;;;;;;4983457;28;20461;-89
2022/09/21 14:10:07;;;;;;;0.87;0.83;;;19.70;83.40;;;;;;4975161;28;20437;-90
2022/09/21 14:12:40;;;;;;;0.90;0.80;;;19.80;81.70;;;;;;4978104;28;20479;-89
2022/09/21 14:15:21;;;;;;;0.97;0.90;;;19.90;83.30;;;;;;4981996;28;20436;-90
2022/09/21 14:18:09;;;;;;;1.10;1.00;;;19.90;78.60;;;;;;4992470;28;20424;-90